Oasis of the Seas — C6XS7 — position and weather

sailwx.info

Track history (hours):
 
Tides and Currents Weather Stations Pressure Air Temp Water Temp Dewpoint Dewpoint Depression Visibility Wind Speed Wind Dir Waves Ship Positions

Oasis of the Seas

Last reported at 2019-May-20 04:30 UTC. Time now 2019-May-20 04:45 UTC.
Position N 39°27' E 002°35'.

Length 360 m; draft 9.3 m.

Type: Passenger vessel. MMSI: 311020600.

Date/timePositionNaut miles runAvg speedWind from/ knotsBaromVisibWave heightAir tempDewpointWater temp
2019-May-20 04:30N 39°27' E 002°35'611.2
2019-May-20 04:00N 39°23' E 002°30'610.9
2019-May-20 03:28N 39°21' E 002°23'7610.1
2019-May-19 20:00N 40°36' E 002°06'3312.0 110 / 41016.8 19.0
2019-May-19 17:13N 41°09' E 002°11'211.4
2019-May-19 17:00N 41°12' E 002°11'611.2
2019-May-19 16:30N 41°17' E 002°11'4 7.3
2019-May-19 16:01N 41°21' E 002°10'1 1.8
2019-May-19 15:30N 41°22' E 002°11'0 0.0
2019-May-19 15:00N 41°22' E 002°11'0 0.0
2019-May-19 14:30N 41°22' E 002°11'0 0.0
2019-May-19 14:00N 41°22' E 002°11'0 0.0
2019-May-19 13:30N 41°22' E 002°11'0 0.0
2019-May-19 13:00N 41°22' E 002°11'0 0.0
2019-May-19 12:27N 41°22' E 002°11'0 0.0
2019-May-19 12:00N 41°22' E 002°11'0 0.0
2019-May-19 11:30N 41°22' E 002°11'0 0.0
2019-May-19 11:00N 41°22' E 002°11'0 0.0
2019-May-19 10:30N 41°22' E 002°11'0 0.0
2019-May-19 09:59N 41°22' E 002°11'0 0.0
2019-May-19 09:29N 41°22' E 002°11'0 0.0
2019-May-19 08:59N 41°22' E 002°11'0 0.0
2019-May-19 08:29N 41°22' E 002°11'0 0.0
2019-May-19 07:59N 41°22' E 002°11'0 0.0
2019-May-19 07:29N 41°22' E 002°11'0 0.0
2019-May-19 06:59N 41°22' E 002°11'0 0.0
2019-May-19 06:29N 41°22' E 002°11'0 0.0
2019-May-19 05:59N 41°22' E 002°11'0 0.0
2019-May-19 05:26N 41°22' E 002°11'0 0.0
2019-May-19 04:59N 41°22' E 002°11'0 0.0
2019-May-19 04:29N 41°22' E 002°11'0 0.0
2019-May-19 03:59N 41°22' E 002°11'0 0.0
2019-May-19 03:29N 41°22' E 002°11'0 0.1
2019-May-19 03:00N 41°22' E 002°11'3 5.6
2019-May-19 02:30N 41°19' E 002°10'4 7.9
2019-May-19 02:00N 41°15' E 002°12'713.8
2019-May-19 01:31N 41°13' E 002°21'916.0
2019-May-19 00:59N 41°13' E 002°32'5714.3
2019-May-18 21:00N 41°12' E 003°48'12618.1 250 / 61014.8 18.0
2019-May-18 14:00N 41°12' E 006°36'28216.6 310 / 161011.827.0 15.0 19.0
2019-May-17 21:00N 40°48' E 012°48'5320.9 150 / 201012.8 17.0 19.0
2019-May-17 18:26N 40°36' E 013°57'87 4.3
2019-May-16 22:00N 41°12' E 012°12'141 6.1 360 / 51016.9 17.0 18.0
2019-May-15 22:59N 42°46' E 009°51'4619.7
2019-May-15 20:40N 43°30' E 009°34'1621.8
2019-May-15 19:55N 43°45' E 009°43'820.3
2019-May-15 19:30N 43°53' E 009°48'918.1
2019-May-15 19:00N 44°01' E 009°52'5 9.6
2019-May-15 18:30N 44°06' E 009°50'0 0.9
2019-May-15 17:59N 44°07' E 009°50'0 0.0
2019-May-15 17:29N 44°07' E 009°50'0 0.0
2019-May-15 16:59N 44°07' E 009°50'0 0.0
2019-May-15 16:29N 44°07' E 009°50'0 0.0
2019-May-15 15:59N 44°07' E 009°50'0 0.0
2019-May-15 15:29N 44°07' E 009°50'0 0.0
2019-May-15 14:59N 44°07' E 009°50'0 0.0
2019-May-15 14:26N 44°07' E 009°50'0 0.0
2019-May-15 13:59N 44°07' E 009°50'0 0.0
2019-May-15 13:26N 44°07' E 009°50'0 0.0
2019-May-15 12:59N 44°07' E 009°50'0 0.0
2019-May-15 12:29N 44°07' E 009°50'0 0.0
2019-May-15 11:59N 44°07' E 009°50'0 0.0
2019-May-15 11:29N 44°07' E 009°50'0 0.0
2019-May-15 10:59N 44°07' E 009°50'0 0.0
2019-May-15 10:29N 44°07' E 009°50'0 0.0
2019-May-15 09:59N 44°07' E 009°50'0 0.0
2019-May-15 09:17N 44°07' E 009°50'0 0.0
2019-May-15 08:59N 44°07' E 009°50'0 0.0
2019-May-15 08:23N 44°07' E 009°50'0 0.0
2019-May-15 07:47N 44°07' E 009°50'0 0.0
2019-May-15 07:29N 44°07' E 009°50'0 0.0
2019-May-15 06:59N 44°07' E 009°50'0 0.0
2019-May-15 06:29N 44°07' E 009°50'0 0.7
2019-May-15 06:00N 44°06' E 009°50'3 6.9
2019-May-15 05:30N 44°03' E 009°52'714.0
2019-May-15 05:00N 43°57' E 009°57'816.3
2019-May-15 04:30N 43°53' E 009°48'816.9
2019-May-15 04:00N 43°49' E 009°37'917.5
2019-May-15 03:30N 43°47' E 009°26'917.4
2019-May-15 03:00N 43°43' E 009°15'918.4
2019-May-15 02:30N 43°39' E 009°03'1019.9
2019-May-15 02:00N 43°34' E 008°51'1019.3
2019-May-15 01:30N 43°31' E 008°39'2818.1
2019-May-14 23:58N 43°19' E 008°04'918.4
2019-May-14 23:30N 43°16' E 007°53'919.0
2019-May-14 23:00N 43°12' E 007°41'1019.1
2019-May-14 22:30N 43°08' E 007°29'919.0
2019-May-14 22:00N 43°04' E 007°18'6348.7
2019-May-14 22:00N 43°00' E 007°12'5 9.4 080 / 201018.9 19.0
2019-May-14 21:30N 43°00' E 007°06'8117.3
2019-May-14 16:50N 43°14' E 005°16'7 1.0
2019-May-14 10:02N 43°21' E 005°20'16712.8
2019-May-13 21:00N 41°00' E 003°18'10217.3 320 / 101025.9 16.0 18.0
2019-May-13 15:05N 39°25' E 002°29'118.4
2019-May-13 15:00N 39°25' E 002°30'816.9
2019-May-13 14:31N 39°31' E 002°38'1 2.8
2019-May-13 13:59N 39°33' E 002°38'0 0.0
2019-May-13 13:29N 39°33' E 002°38'0 0.0
2019-May-13 12:59N 39°33' E 002°38'0 0.0
2019-May-13 12:29N 39°33' E 002°38'0 0.0
2019-May-13 11:59N 39°33' E 002°38'0 0.0
2019-May-13 11:29N 39°33' E 002°38'0 0.0
2019-May-13 10:59N 39°33' E 002°38'0 0.0
2019-May-13 10:29N 39°33' E 002°38'0 0.0
2019-May-13 09:59N 39°33' E 002°38'0 0.0
2019-May-13 09:29N 39°33' E 002°38'0 0.0
2019-May-13 08:59N 39°33' E 002°38'0 0.0
2019-May-13 08:29N 39°33' E 002°38'0 0.0
2019-May-13 07:59N 39°33' E 002°38'0 0.0
2019-May-13 07:29N 39°33' E 002°38'0 0.0
2019-May-13 06:56N 39°33' E 002°38'0 0.0
2019-May-13 06:29N 39°33' E 002°38'0 0.0
2019-May-13 05:59N 39°33' E 002°38'0 0.0
2019-May-13 05:29N 39°33' E 002°38'0 0.3
2019-May-13 05:00N 39°33' E 002°38'2 3.7
2019-May-13 04:31N 39°31' E 002°39'510.6
2019-May-13 04:00N 39°27' E 002°35'510.8
2019-May-13 03:30N 39°24' E 002°29'510.5
2019-May-13 03:00N 39°24' E 002°22'9111.3
2019-May-12 19:00N 40°54' E 002°06'2410.1 190 / 131024.9 17.0 18.0
2019-May-12 16:36N 41°18' E 002°10'110.3
2019-May-12 16:30N 41°19' E 002°10'3 5.2
2019-May-12 16:00N 41°22' E 002°11'0 0.1
2019-May-12 15:28N 41°22' E 002°11'0 0.0
2019-May-12 14:58N 41°22' E 002°11'0 0.0
2019-May-12 14:25N 41°22' E 002°11'0 0.0
2019-May-12 13:55N 41°22' E 002°11'0 0.0
2019-May-12 12:55N 41°22' E 002°11'0 0.0
2019-May-12 12:19N 41°22' E 002°11'0 0.0
2019-May-12 11:55N 41°22' E 002°11'0 0.0
2019-May-12 11:25N 41°22' E 002°11'0 0.0
2019-May-12 10:55N 41°22' E 002°11'0 0.0
2019-May-12 10:25N 41°22' E 002°11'0 0.0
2019-May-12 09:55N 41°22' E 002°11'0 0.0
2019-May-12 09:28N 41°22' E 002°11'0 0.0
2019-May-12 08:55N 41°22' E 002°11'0 0.0
2019-May-12 08:28N 41°22' E 002°11'0 0.0
2019-May-12 07:58N 41°22' E 002°11'0 0.0
2019-May-12 07:28N 41°22' E 002°11'0 0.0
2019-May-12 06:58N 41°22' E 002°11'0 0.0
2019-May-12 06:28N 41°22' E 002°11'0 0.0
2019-May-12 05:55N 41°22' E 002°11'0 0.0
2019-May-12 05:13N 41°22' E 002°11'0 0.0
2019-May-12 04:58N 41°22' E 002°11'0 0.0
2019-May-12 04:28N 41°22' E 002°11'0 0.0
2019-May-12 03:58N 41°22' E 002°11'0 0.0
2019-May-12 03:28N 41°22' E 002°11'0 0.0
2019-May-12 02:58N 41°22' E 002°11'1 1.2
2019-May-12 02:29N 41°21' E 002°10'3 6.4
2019-May-12 02:00N 41°18' E 002°11'5 9.3
2019-May-12 01:30N 41°14' E 002°14'714.0
2019-May-12 01:00N 41°14' E 002°23'19 9.4
2019-May-11 23:00N 41°12' E 002°48'6321.1 200 / 81028.110.8 15.8 18.0
2019-May-11 20:00N 41°12' E 004°12'28416.7 010 / 401026.9 17.0 17.0
2019-May-11 03:00N 41°12' E 010°30'1919.0 250 / 61020.510.8 16.2 18.8
2019-May-11 02:00N 41°06' E 010°54'8420.9 190 / 111020.510.8 16.1 18.7
2019-May-10 22:00N 40°48' E 012°42'3415.5 290 / 81020.9 19.5
2019-May-10 19:48N 40°41' E 013°26'619.3
2019-May-10 19:30N 40°39' E 013°33'1319.4
2019-May-10 18:49N 40°36' E 013°50'619.3
2019-May-10 18:30N 40°36' E 013°58'1020.0
2019-May-10 18:00N 40°41' E 014°09'8541.7
2019-May-10 18:00N 40°36' E 014°00'1735.7 280 / 71018.9 17.5 19.9
2019-May-10 17:31N 40°48' E 014°16'2 4.3
2019-May-10 16:59N 40°50' E 014°16'0 0.0
2019-May-10 16:26N 40°50' E 014°16'0 0.0
2019-May-10 15:59N 40°50' E 014°16'0 0.0
2019-May-10 15:29N 40°50' E 014°16'0 0.0
2019-May-10 14:59N 40°50' E 014°16'0 0.0
2019-May-10 14:29N 40°50' E 014°16'0 0.0
2019-May-10 13:59N 40°50' E 014°16'0 0.0
2019-May-10 13:26N 40°50' E 014°16'0 0.0
2019-May-10 12:59N 40°50' E 014°16'0 0.0
2019-May-10 12:29N 40°50' E 014°16'0 0.0
2019-May-10 11:59N 40°50' E 014°16'0 0.0
2019-May-10 11:29N 40°50' E 014°16'0 0.0
2019-May-10 10:59N 40°50' E 014°16'0 0.0
2019-May-10 10:29N 40°50' E 014°16'0 0.0
2019-May-10 09:59N 40°50' E 014°16'0 0.0
2019-May-10 09:29N 40°50' E 014°16'0 0.0
2019-May-10 08:59N 40°50' E 014°16'0 0.0
2019-May-10 08:29N 40°50' E 014°16'0 0.0
2019-May-10 07:59N 40°50' E 014°16'0 0.0
2019-May-10 07:29N 40°50' E 014°16'0 0.0
2019-May-10 06:59N 40°50' E 014°16'0 0.0
2019-May-10 06:29N 40°50' E 014°16'0 0.0
2019-May-10 05:59N 40°50' E 014°16'0 0.0
2019-May-10 05:29N 40°50' E 014°16'0 0.0
2019-May-10 04:59N 40°50' E 014°16'  
Track history (hours):
 
Tides and Currents Weather Stations Pressure Air Temp Water Temp Dewpoint Dewpoint Depression Visibility Wind Speed Wind Dir Waves Ship Positions

Oasis of the Seas

Last reported at 2019-May-20 04:30 UTC. Time now 2019-May-20 04:45 UTC.
Position N 39°27' E 002°35'.

Length 360 m; draft 9.3 m.

Type: Passenger vessel. MMSI: 311020600.

Date/timePositionNaut miles runAvg speedWind from/ knotsBaromVisibWave heightAir tempDewpointWater temp
2019-May-20 04:30N 39°27' E 002°35'611.2
2019-May-20 04:00N 39°23' E 002°30'610.9
2019-May-20 03:28N 39°21' E 002°23'7610.1
2019-May-19 20:00N 40°36' E 002°06'3312.0 110 / 41016.8 19.0
2019-May-19 17:13N 41°09' E 002°11'211.4
2019-May-19 17:00N 41°12' E 002°11'611.2
2019-May-19 16:30N 41°17' E 002°11'4 7.3
2019-May-19 16:01N 41°21' E 002°10'1 1.8
2019-May-19 15:30N 41°22' E 002°11'0 0.0
2019-May-19 15:00N 41°22' E 002°11'0 0.0
2019-May-19 14:30N 41°22' E 002°11'0 0.0
2019-May-19 14:00N 41°22' E 002°11'0 0.0
2019-May-19 13:30N 41°22' E 002°11'0 0.0
2019-May-19 13:00N 41°22' E 002°11'0 0.0
2019-May-19 12:27N 41°22' E 002°11'0 0.0
2019-May-19 12:00N 41°22' E 002°11'0 0.0
2019-May-19 11:30N 41°22' E 002°11'0 0.0
2019-May-19 11:00N 41°22' E 002°11'0 0.0
2019-May-19 10:30N 41°22' E 002°11'0 0.0
2019-May-19 09:59N 41°22' E 002°11'0 0.0
2019-May-19 09:29N 41°22' E 002°11'0 0.0
2019-May-19 08:59N 41°22' E 002°11'0 0.0
2019-May-19 08:29N 41°22' E 002°11'0 0.0
2019-May-19 07:59N 41°22' E 002°11'0 0.0
2019-May-19 07:29N 41°22' E 002°11'0 0.0
2019-May-19 06:59N 41°22' E 002°11'0 0.0
2019-May-19 06:29N 41°22' E 002°11'0 0.0
2019-May-19 05:59N 41°22' E 002°11'0 0.0
2019-May-19 05:26N 41°22' E 002°11'0 0.0
2019-May-19 04:59N 41°22' E 002°11'0 0.0
2019-May-19 04:29N 41°22' E 002°11'0 0.0
2019-May-19 03:59N 41°22' E 002°11'0 0.0
2019-May-19 03:29N 41°22' E 002°11'0 0.1
2019-May-19 03:00N 41°22' E 002°11'3 5.6
2019-May-19 02:30N 41°19' E 002°10'4 7.9
2019-May-19 02:00N 41°15' E 002°12'713.8
2019-May-19 01:31N 41°13' E 002°21'916.0
2019-May-19 00:59N 41°13' E 002°32'5714.3
2019-May-18 21:00N 41°12' E 003°48'12618.1 250 / 61014.8 18.0
2019-May-18 14:00N 41°12' E 006°36'28216.6 310 / 161011.827.0 15.0 19.0
2019-May-17 21:00N 40°48' E 012°48'5320.9 150 / 201012.8 17.0 19.0
2019-May-17 18:26N 40°36' E 013°57'87 4.3
2019-May-16 22:00N 41°12' E 012°12'141 6.1 360 / 51016.9 17.0 18.0
2019-May-15 22:59N 42°46' E 009°51'4619.7
2019-May-15 20:40N 43°30' E 009°34'1621.8
2019-May-15 19:55N 43°45' E 009°43'820.3
2019-May-15 19:30N 43°53' E 009°48'918.1
2019-May-15 19:00N 44°01' E 009°52'5 9.6
2019-May-15 18:30N 44°06' E 009°50'0 0.9
2019-May-15 17:59N 44°07' E 009°50'0 0.0
2019-May-15 17:29N 44°07' E 009°50'0 0.0
2019-May-15 16:59N 44°07' E 009°50'0 0.0
2019-May-15 16:29N 44°07' E 009°50'0 0.0
2019-May-15 15:59N 44°07' E 009°50'0 0.0
2019-May-15 15:29N 44°07' E 009°50'0 0.0
2019-May-15 14:59N 44°07' E 009°50'0 0.0
2019-May-15 14:26N 44°07' E 009°50'0 0.0
2019-May-15 13:59N 44°07' E 009°50'0 0.0
2019-May-15 13:26N 44°07' E 009°50'0 0.0
2019-May-15 12:59N 44°07' E 009°50'0 0.0
2019-May-15 12:29N 44°07' E 009°50'0 0.0
2019-May-15 11:59N 44°07' E 009°50'0 0.0
2019-May-15 11:29N 44°07' E 009°50'0 0.0
2019-May-15 10:59N 44°07' E 009°50'0 0.0
2019-May-15 10:29N 44°07' E 009°50'0 0.0
2019-May-15 09:59N 44°07' E 009°50'0 0.0
2019-May-15 09:17N 44°07' E 009°50'0 0.0
2019-May-15 08:59N 44°07' E 009°50'0 0.0
2019-May-15 08:23N 44°07' E 009°50'0 0.0
2019-May-15 07:47N 44°07' E 009°50'0 0.0
2019-May-15 07:29N 44°07' E 009°50'0 0.0
2019-May-15 06:59N 44°07' E 009°50'0 0.0
2019-May-15 06:29N 44°07' E 009°50'0 0.7
2019-May-15 06:00N 44°06' E 009°50'3 6.9
2019-May-15 05:30N 44°03' E 009°52'714.0
2019-May-15 05:00N 43°57' E 009°57'816.3
2019-May-15 04:30N 43°53' E 009°48'816.9
2019-May-15 04:00N 43°49' E 009°37'917.5
2019-May-15 03:30N 43°47' E 009°26'917.4
2019-May-15 03:00N 43°43' E 009°15'918.4
2019-May-15 02:30N 43°39' E 009°03'1019.9
2019-May-15 02:00N 43°34' E 008°51'1019.3
2019-May-15 01:30N 43°31' E 008°39'2818.1
2019-May-14 23:58N 43°19' E 008°04'918.4
2019-May-14 23:30N 43°16' E 007°53'919.0
2019-May-14 23:00N 43°12' E 007°41'1019.1
2019-May-14 22:30N 43°08' E 007°29'919.0
2019-May-14 22:00N 43°04' E 007°18'6348.7
2019-May-14 22:00N 43°00' E 007°12'5 9.4 080 / 201018.9 19.0
2019-May-14 21:30N 43°00' E 007°06'8117.3
2019-May-14 16:50N 43°14' E 005°16'7 1.0
2019-May-14 10:02N 43°21' E 005°20'16712.8
2019-May-13 21:00N 41°00' E 003°18'10217.3 320 / 101025.9 16.0 18.0
2019-May-13 15:05N 39°25' E 002°29'118.4
2019-May-13 15:00N 39°25' E 002°30'816.9
2019-May-13 14:31N 39°31' E 002°38'1 2.8
2019-May-13 13:59N 39°33' E 002°38'0 0.0
2019-May-13 13:29N 39°33' E 002°38'0 0.0
2019-May-13 12:59N 39°33' E 002°38'0 0.0
2019-May-13 12:29N 39°33' E 002°38'0 0.0
2019-May-13 11:59N 39°33' E 002°38'0 0.0
2019-May-13 11:29N 39°33' E 002°38'0 0.0
2019-May-13 10:59N 39°33' E 002°38'0 0.0
2019-May-13 10:29N 39°33' E 002°38'0 0.0
2019-May-13 09:59N 39°33' E 002°38'0 0.0
2019-May-13 09:29N 39°33' E 002°38'0 0.0
2019-May-13 08:59N 39°33' E 002°38'0 0.0
2019-May-13 08:29N 39°33' E 002°38'0 0.0
2019-May-13 07:59N 39°33' E 002°38'0 0.0
2019-May-13 07:29N 39°33' E 002°38'0 0.0
2019-May-13 06:56N 39°33' E 002°38'0 0.0
2019-May-13 06:29N 39°33' E 002°38'0 0.0
2019-May-13 05:59N 39°33' E 002°38'0 0.0
2019-May-13 05:29N 39°33' E 002°38'0 0.3
2019-May-13 05:00N 39°33' E 002°38'2 3.7
2019-May-13 04:31N 39°31' E 002°39'510.6
2019-May-13 04:00N 39°27' E 002°35'510.8
2019-May-13 03:30N 39°24' E 002°29'510.5
2019-May-13 03:00N 39°24' E 002°22'9111.3
2019-May-12 19:00N 40°54' E 002°06'2410.1 190 / 131024.9 17.0 18.0
2019-May-12 16:36N 41°18' E 002°10'110.3
2019-May-12 16:30N 41°19' E 002°10'3 5.2
2019-May-12 16:00N 41°22' E 002°11'0 0.1
2019-May-12 15:28N 41°22' E 002°11'0 0.0
2019-May-12 14:58N 41°22' E 002°11'0 0.0
2019-May-12 14:25N 41°22' E 002°11'0 0.0
2019-May-12 13:55N 41°22' E 002°11'0 0.0
2019-May-12 12:55N 41°22' E 002°11'0 0.0
2019-May-12 12:19N 41°22' E 002°11'0 0.0
2019-May-12 11:55N 41°22' E 002°11'0 0.0
2019-May-12 11:25N 41°22' E 002°11'0 0.0
2019-May-12 10:55N 41°22' E 002°11'0 0.0
2019-May-12 10:25N 41°22' E 002°11'0 0.0
2019-May-12 09:55N 41°22' E 002°11'0 0.0
2019-May-12 09:28N 41°22' E 002°11'0 0.0
2019-May-12 08:55N 41°22' E 002°11'0 0.0
2019-May-12 08:28N 41°22' E 002°11'0 0.0
2019-May-12 07:58N 41°22' E 002°11'0 0.0
2019-May-12 07:28N 41°22' E 002°11'0 0.0
2019-May-12 06:58N 41°22' E 002°11'0 0.0
2019-May-12 06:28N 41°22' E 002°11'0 0.0
2019-May-12 05:55N 41°22' E 002°11'0 0.0
2019-May-12 05:13N 41°22' E 002°11'0 0.0
2019-May-12 04:58N 41°22' E 002°11'0 0.0
2019-May-12 04:28N 41°22' E 002°11'0 0.0
2019-May-12 03:58N 41°22' E 002°11'0 0.0
2019-May-12 03:28N 41°22' E 002°11'0 0.0
2019-May-12 02:58N 41°22' E 002°11'1 1.2
2019-May-12 02:29N 41°21' E 002°10'3 6.4
2019-May-12 02:00N 41°18' E 002°11'5 9.3
2019-May-12 01:30N 41°14' E 002°14'714.0
2019-May-12 01:00N 41°14' E 002°23'19 9.4
2019-May-11 23:00N 41°12' E 002°48'6321.1 200 / 81028.110.8 15.8 18.0
2019-May-11 20:00N 41°12' E 004°12'28416.7 010 / 401026.9 17.0 17.0
2019-May-11 03:00N 41°12' E 010°30'1919.0 250 / 61020.510.8 16.2 18.8
2019-May-11 02:00N 41°06' E 010°54'8420.9 190 / 111020.510.8 16.1 18.7
2019-May-10 22:00N 40°48' E 012°42'3415.5 290 / 81020.9 19.5
2019-May-10 19:48N 40°41' E 013°26'619.3
2019-May-10 19:30N 40°39' E 013°33'1319.4
2019-May-10 18:49N 40°36' E 013°50'619.3
2019-May-10 18:30N 40°36' E 013°58'1020.0
2019-May-10 18:00N 40°41' E 014°09'8541.7
2019-May-10 18:00N 40°36' E 014°00'1735.7 280 / 71018.9 17.5 19.9
2019-May-10 17:31N 40°48' E 014°16'2 4.3
2019-May-10 16:59N 40°50' E 014°16'0 0.0
2019-May-10 16:26N 40°50' E 014°16'0 0.0
2019-May-10 15:59N 40°50' E 014°16'0 0.0
2019-May-10 15:29N 40°50' E 014°16'0 0.0
2019-May-10 14:59N 40°50' E 014°16'0 0.0
2019-May-10 14:29N 40°50' E 014°16'0 0.0
2019-May-10 13:59N 40°50' E 014°16'0 0.0
2019-May-10 13:26N 40°50' E 014°16'0 0.0
2019-May-10 12:59N 40°50' E 014°16'0 0.0
2019-May-10 12:29N 40°50' E 014°16'0 0.0
2019-May-10 11:59N 40°50' E 014°16'0 0.0
2019-May-10 11:29N 40°50' E 014°16'0 0.0
2019-May-10 10:59N 40°50' E 014°16'0 0.0
2019-May-10 10:29N 40°50' E 014°16'0 0.0
2019-May-10 09:59N 40°50' E 014°16'0 0.0
2019-May-10 09:29N 40°50' E 014°16'0 0.0
2019-May-10 08:59N 40°50' E 014°16'0 0.0
2019-May-10 08:29N 40°50' E 014°16'0 0.0
2019-May-10 07:59N 40°50' E 014°16'0 0.0
2019-May-10 07:29N 40°50' E 014°16'0 0.0
2019-May-10 06:59N 40°50' E 014°16'0 0.0
2019-May-10 06:29N 40°50' E 014°16'0 0.0
2019-May-10 05:59N 40°50' E 014°16'0 0.0
2019-May-10 05:29N 40°50' E 014°16'0 0.0
2019-May-10 04:59N 40°50' E 014°16'  

Dump ship's entire track history